• Join FlightAware (Why Join?)
  • Login
  • US Flag 
10:35PM EDT


 

Airport Tracker/Info


-or-


 

Live Flight TrackerFlight Track Log ✈ SWA3206 ✈ 30-Apr-2013 ✈ KPHX - KBWI

Flight Track Log - Related Links

Times and Time Zones

All times are in EDT time to prevent confusion due to time zone crossing. See the SWA3206 flight status page for this flight to view local times or setup timezone preferences in your user account.

Time Position Orientation Groundspeed Altitude Reporting Facility
EDT Latitude Longitude Course Direction KTS MPH feet Rate Location/Type
08:58PM 33.4333 -112.0333 270° West 168 193 2,000  Level Phoenix TRACON
08:59PM 33.4333 -112.1167 270° West 212 244 5,500 2,520 Climbing Phoenix TRACON
09:00PM 33.4597 -112.1467 317° Northwest 230 265 7,200 2,400 Climbing Albuquerque Center
09:01PM 33.5169 -112.1061 31° Northeast 297 342 9,800 2,700 Climbing Albuquerque Center
09:02PM 33.5428 -111.9786 76° East 344 396 12,800 3,000 Climbing Albuquerque Center
09:03PM 33.5683 -111.8586 76° East 373 429 16,000 3,240 Climbing Albuquerque Center
09:04PM 33.5936 -111.7353 76° East 384 442 19,500 2,820 Climbing Albuquerque Center
09:05PM 33.6200 -111.6053 76° East 402 463 21,800 2,460 Climbing Albuquerque Center
09:06PM 33.6478 -111.4708 76° East 418 481 24,600 2,460 Climbing Albuquerque Center
09:07PM 33.6744 -111.3339 77° East 424 488 26,900 2,100 Climbing Albuquerque Center
09:08PM 33.7228 -111.1703 70° East 437 503 29,000 1,680 Climbing Albuquerque Center
09:09PM 33.7731 -111.0306 67° East 455 524 30,400 1,620 Climbing Albuquerque Center
09:10PM 33.8239 -110.8867 67° East 465 535 32,400 2,040 Climbing Albuquerque Center
09:11PM 33.8733 -110.7467 67° East 461 531 34,600 1,260 Climbing Albuquerque Center
09:12PM 33.9219 -110.6097 67° East 453 521 35,000 180 Climbing Albuquerque Center
09:13PM 33.9700 -110.4728 67° East 448 516 35,000  Level Albuquerque Center
09:14PM 34.0175 -110.3336 68° East 448 516 35,000  Level Albuquerque Center
09:15PM 34.0750 -110.1694 67° East 447 514 35,000 180 Level Albuquerque Center
09:16PM 34.1256 -110.0228 67° East 449 517 35,400 900 Climbing Albuquerque Center
09:17PM 34.1719 -109.8900 67° East 450 518 36,900 780 Climbing Albuquerque Center
09:18PM 34.2167 -109.7564 68° East 449 517 37,000  Climbing Albuquerque Center
09:19PM 34.2694 -109.6006 68° East 449 517 37,000  Level Albuquerque Center
09:20PM 34.3147 -109.4694 67° East 446 513 37,000  Level Albuquerque Center
09:21PM 34.3683 -109.3131 67° East 449 517 37,000  Level Albuquerque Center
09:22PM 34.4167 -109.1792 66° East 452 520 37,000  Level Albuquerque Center
09:23PM 34.4781 -109.0547 59° Northeast 453 521 37,000  Level Albuquerque Center
09:24PM 34.5461 -108.9086 60° Northeast 449 517 37,000  Level Albuquerque Center
09:25PM 34.6056 -108.7828 60° Northeast 450 518 37,000  Level Albuquerque Center
09:26PM 34.6742 -108.6350 61° Northeast 451 519 37,000  Level Albuquerque Center
09:27PM 34.7328 -108.5075 61° Northeast 453 521 37,000  Level Albuquerque Center
09:28PM 34.7989 -108.3647 61° Northeast 455 524 37,000  Level Albuquerque Center
09:29PM 34.8600 -108.2281 61° Northeast 456 525 37,000  Level Albuquerque Center
09:31PM 34.9197 -108.0989 61° Northeast 458 527 37,000  Level Albuquerque Center
09:32PM 34.9875 -107.9489 61° Northeast 455 524 37,000  Level Albuquerque Center
09:33PM 35.0450 -107.8206 61° Northeast 453 521 37,000  Level Albuquerque Center
09:34PM 35.1136 -107.6697 61° Northeast 455 524 37,000  Level Albuquerque Center
09:35PM 35.1711 -107.5406 61° Northeast 455 524 37,000  Level Albuquerque Center
09:36PM 35.2269 -107.4156 61° Northeast 457 526 37,000  Level Albuquerque Center
09:37PM 35.2892 -107.2778 61° Northeast 459 528 37,000  Level Albuquerque Center
09:38PM 35.3556 -107.1247 62° Northeast 460 529 37,000  Level Albuquerque Center
09:39PM 35.4122 -107.0000 61° Northeast 459 528 37,000  Level Albuquerque Center
09:40PM 35.4731 -106.8617 62° Northeast 459 528 37,000 480 Level Albuquerque Center
09:41PM 35.5444 -106.6947 62° Northeast 456 525 38,000 960 Climbing Albuquerque Center
09:42PM 35.6047 -106.5583 61° Northeast 454 522 39,000 480 Climbing Albuquerque Center
09:43PM 35.6633 -106.4275 61° Northeast 454 522 39,000  Level Albuquerque Center
09:44PM 35.7278 -106.2761 62° Northeast 449 517 39,000  Level Albuquerque Center
09:45PM 35.7800 -106.1472 63° Northeast 452 520 39,000  Level Albuquerque Center
09:46PM 35.8375 -106.0125 62° Northeast 447 514 39,000  Level Albuquerque Center
09:47PM 35.8956 -105.8789 62° Northeast 443 510 39,000  Level Albuquerque Center
09:48PM 35.9519 -105.7456 62° Northeast 440 506 39,000  Level Albuquerque Center
09:49PM 36.0092 -105.6117 62° Northeast 440 506 39,000  Level Albuquerque Center
09:50PM 36.0694 -105.4667 63° Northeast 443 510 39,000  Level Albuquerque Center
09:51PM 36.1275 -105.3267 63° Northeast 449 517 39,000  Level Albuquerque Center
09:52PM 36.1847 -105.1875 63° Northeast 450 518 39,000  Level Albuquerque Center
09:53PM 36.2428 -105.0483 63° Northeast 449 517 39,000  Level Albuquerque Center
09:54PM 36.3103 -104.8842 63° Northeast 453 521 39,000  Level Albuquerque Center
09:55PM 36.3686 -104.7447 63° Northeast 452 520 39,000  Level Albuquerque Center
09:56PM 36.4258 -104.6053 63° Northeast 450 518 39,000  Level Albuquerque Center
09:57PM 36.4814 -104.4653 64° Northeast 447 514 39,000  Level Albuquerque Center
09:58PM 36.5397 -104.3261 62° Northeast 448 516 39,000  Level Albuquerque Center
09:59PM 36.5961 -104.1878 63° Northeast 445 512 39,000  Level Albuquerque Center
10:00PM 36.6533 -104.0483 63° Northeast 446 513 39,000  Level Albuquerque Center
10:01PM 36.7056 -103.9175 64° Northeast 446 513 39,000  Level Albuquerque Center
10:02PM 36.7667 -103.7631 64° Northeast 447 514 39,000  Level Albuquerque Center
10:03PM 36.8200 -103.6306 63° Northeast 447 514 39,000  Level Albuquerque Center
10:04PM 36.8806 -103.4764 64° Northeast 446 513 39,000  Level Albuquerque Center
10:05PM 36.9331 -103.3419 64° Northeast 449 517 39,000  Level Albuquerque Center
10:06PM 36.9853 -103.2094 64° Northeast 447 514 39,000  Level Albuquerque Center
10:07PM 37.0464 -103.0522 64° Northeast 451 519 39,000  Level Albuquerque Center
10:08PM 37.0992 -102.9153 64° Northeast 454 522 39,000  Level Albuquerque Center
10:09PM 37.1617 -102.7561 64° Northeast 457 526 39,000  Level Albuquerque Center
10:10PM 37.2139 -102.6194 64° Northeast 456 525 39,000  Level Albuquerque Center
10:12PM 37.2726 -102.4585 65° Northeast  Level FlightAware Approximate
10:12PM 37.3275 -102.3242 65° Northeast 454 522 39,000  Level Albuquerque Center
10:13PM 37.3794 -102.1856 65° Northeast 457 526 39,000  Level Albuquerque Center
10:14PM 37.4356 -102.0356 65° Northeast 457 526 39,000  Level Albuquerque Center
10:15PM 37.4878 -101.8964 65° Northeast 458 527 39,000  Level Albuquerque Center
10:17PM 37.5404 -101.7509 65° Northeast  Level FlightAware Approximate
10:18PM 37.6508 -101.4561 64° Northeast 454 522 39,000  Level Kansas City Center
10:20PM 37.7106 -101.2947 65° Northeast 454 522 39,000  Level Kansas City Center
10:21PM 37.7619 -101.1578 65° Northeast 450 518 39,000  Level Kansas City Center
10:22PM 37.8125 -101.0178 65° Northeast 451 519 39,000  Level Kansas City Center
10:23PM 37.8717 -100.8542 65° Northeast 451 519 39,000  Level Kansas City Center
10:24PM 37.8932 -100.7795 64° Northeast  Level FlightAware Approximate
10:24PM 37.9181 -100.7108 68° East 455 524 39,000  Level Kansas City Center
10:25PM 37.9325 -100.5564 83° East 458 527 39,000  Level Kansas City Center
10:26PM 37.9472 -100.3767 84° East 459 528 39,000 60 Level Kansas City Center
10:27PM 37.9592 -100.2228 84° East 456 525 39,200 600 Climbing Kansas City Center
10:28PM 37.9725 -100.0403 85° East 463 533 40,300 840 Climbing Kansas City Center
10:29PM 37.9842 -99.8842 85° East 466 536 41,000 300 Climbing Kansas City Center
10:30PM 37.9967 -99.7319 84° East 459 528 41,000  Level Kansas City Center
10:31PM 38.0100 -99.5511 85° East 459 528 41,000  Level Kansas City Center
10:32PM 38.0194 -99.4036 85° East 460 529 41,000  Level Kansas City Center
10:33PM 38.0317 -99.2428 84° East 460 529 41,000  Level Kansas City Center
10:34PM 38.0425 -99.0817 85° East 459 528 41,000  Level Kansas City Center
10:35PM 38.0544 -98.9214 85° East 457 526 41,000  Level Kansas City Center
10:36PM 38.0656 -98.7617 85° East 456 525 41,000  Level Kansas City Center
10:37PM 38.0789 -98.5706 85° East 453 521 41,000  Level Kansas City Center
10:38PM 38.0894 -98.4114 85° East 454 522 41,000  Level Kansas City Center
10:39PM 38.0994 -98.2517 85° East 450 518 41,000  Level Kansas City Center
10:40PM 38.1081 -98.1031 86° East 451 519 41,000  Level Kansas City Center
10:41PM 38.1169 -97.9422 86° East 454 522 41,000  Level Kansas City Center
10:42PM 38.1281 -97.7681 85° East 453 521 41,000  Level Kansas City Center
10:43PM 38.1369 -97.6083 86° East 454 522 41,000  Level Kansas City Center
10:44PM 38.1461 -97.4442 86° East 452 520 41,000  Level Kansas City Center
10:45PM 38.1550 -97.2856 86° East 450 518 41,000  Level Kansas City Center
10:46PM 38.1642 -97.1264 86° East 452 520 41,000  Level Kansas City Center
10:47PM 38.1719 -96.9664 86° East 451 519 41,000  Level Kansas City Center
10:48PM 38.1803 -96.8075 86° East 452 520 41,000  Level Kansas City Center
10:49PM 38.1889 -96.6483 86° East 452 520 41,000  Level Kansas City Center
10:50PM 38.1953 -96.4900 87° East 451 519 41,000  Level Kansas City Center
10:51PM 38.2039 -96.3169 86° East 446 513 41,000  Level Kansas City Center
10:53PM 38.2172 -95.9875 87° East 451 519 41,000  Level Kansas City Center
10:54PM 38.2236 -95.8367 87° East 449 517 41,000  Level Kansas City Center
10:55PM 38.2306 -95.6600 87° East 453 521 41,000  Level Kansas City Center
10:56PM 38.2372 -95.5075 87° East 452 520 41,000  Level Kansas City Center
10:57PM 38.2433 -95.3536 87° East 454 522 41,000  Level Kansas City Center
10:58PM 38.2494 -95.1739 87° East 456 525 41,000  Level Kansas City Center
10:59PM 38.2553 -95.0217 87° East 455 524 41,000  Level Kansas City Center
11:00PM 38.2603 -94.8703 88° East 453 521 41,000  Level Kansas City Center
11:01PM 38.2667 -94.6933 87° East 451 519 41,000  Level Kansas City Center
11:02PM 38.2714 -94.5422 88° East 449 517 41,000  Level Kansas City Center
11:03PM 38.2931 -94.3669 81° East 455 524 41,000  Level Kansas City Center
11:04PM 38.3167 -94.2200 78° East 448 516 41,000  Level Kansas City Center
11:05PM 38.3383 -94.0750 79° East 446 513 41,000  Level Kansas City Center
11:06PM 38.3644 -93.9192 78° East 446 513 41,000  Level Kansas City Center
11:07PM 38.3883 -93.7628 79° East 448 516 41,000  Level Kansas City Center
11:08PM 38.4142 -93.6050 78° East 452 520 41,000  Level Kansas City Center
11:09PM 38.4389 -93.4483 79° East 449 517 41,000  Level Kansas City Center
11:10PM 38.4681 -93.2581 79° East 452 520 41,000  Level Kansas City Center
11:11PM 38.4928 -93.0992 79° East 453 521 41,000  Level Kansas City Center
11:12PM 38.5181 -92.9394 79° East 454 522 41,000  Level Kansas City Center
11:14PM 38.5408 -92.7825 79° East 451 519 41,000  Level Kansas City Center
11:15PM 38.5639 -92.6253 79° East 448 516 41,000  Level Kansas City Center
11:16PM 38.5881 -92.4675 79° East 449 517 41,000  Level Kansas City Center
11:17PM 38.6106 -92.3092 80° East 449 517 41,000  Level Kansas City Center
11:18PM 38.6325 -92.1528 80° East 445 512 41,000  Level Kansas City Center
11:19PM 38.6547 -91.9981 80° East 442 509 41,000  Level Kansas City Center
11:20PM 38.6772 -91.8428 79° East 442 509 41,000  Level Kansas City Center
11:21PM 38.6992 -91.6875 80° East 441 507 41,000  Level Kansas City Center
11:22PM 38.7169 -91.5528 80° East 440 506 41,000  Level Kansas City Center
11:24PM 38.7636 -91.2108 80° East 443 510 41,000  Level Kansas City Center
11:25PM 38.7853 -91.0539 80° East 446 513 41,000  Level Kansas City Center
11:26PM 38.8064 -90.8967 80° East 447 514 41,000  Level Kansas City Center
11:27PM 38.8278 -90.7381 80° East 449 517 41,000  Level Kansas City Center
11:28PM 38.8481 -90.5875 80° East 450 518 41,000  Level Kansas City Center
11:29PM 38.8703 -90.4281 80° East 451 519 41,000  Level Kansas City Center
11:30PM 38.8975 -90.2681 78° East 454 522 41,000  Level Kansas City Center
11:31PM 38.9233 -90.1094 78° East 453 521 41,000  Level Kansas City Center
11:32PM 38.9506 -89.9281 79° East 448 516 41,000  Level Kansas City Center
11:33PM 38.9761 -89.7711 78° East 448 516 41,000  Level Kansas City Center
11:34PM 39.0008 -89.6133 79° East 450 518 41,000  Level Kansas City Center
11:35PM 39.0264 -89.4428 79° East 452 520 41,000  Level Kansas City Center
11:36PM 39.0503 -89.2850 79° East 451 519 41,000  Level Kansas City Center
11:37PM 39.0733 -89.1242 79° East 456 525 41,000  Level Kansas City Center
11:38PM 39.0981 -88.9639 79° East 459 528 41,000  Level Kansas City Center
11:39PM 39.1233 -88.8264 77° East 461 531 41,000  Level Kansas City Center
11:40PM 39.1447 -88.6656 80° East 459 528 41,000  Level Kansas City Center
11:41PM 39.1731 -88.4850 79° East 459 528 41,000  Level Kansas City Center
11:42PM 39.1947 -88.3242 80° East 456 525 41,000  Level Kansas City Center
11:43PM 39.2178 -88.1628 80° East 455 524 41,000  Level Kansas City Center
11:44PM 39.2403 -88.0008 80° East 456 525 41,000  Level Kansas City Center
11:45PM 39.2625 -87.8411 80° East 452 520 41,000  Level Kansas City Center
11:46PM 39.2742 -87.7450 81° East 458 527 41,000  Level Indianapolis Center
11:47PM 39.2958 -87.5864 80° East 455 524 41,000  Level Indianapolis Center
11:48PM 39.3183 -87.4233 80° East 459 528 41,000  Level Indianapolis Center
11:49PM 39.3411 -87.2600 80° East 461 531 41,000  Level Indianapolis Center
11:51PM 39.3778 -86.9698 81° East  Level FlightAware Approximate
11:55PM 39.4714 -86.2447 82° East 463 533 41,000  Level Indianapolis Center
11:56PM 39.4911 -86.0811 81° East 463 533 41,000  Level Indianapolis Center
11:57PM 39.5111 -85.9169 81° East 463 533 41,000  Level Indianapolis Center
11:58PM 39.5077 -85.8887 81° East  Level FlightAware Approximate
11:58PM 39.5317 -85.7522 81° East 462 532 41,000  Level Indianapolis Center
11:59PM 39.5254 -85.7339 81° East  Level FlightAware Approximate
11:59PM 39.5508 -85.5878 81° East 463 533 41,000  Level Indianapolis Center
12:00AM 39.5430 -85.5790 82° East  Level FlightAware Approximate
12:00AM 39.5714 -85.4225 81° East 463 533 41,000  Level Indianapolis Center
12:01AM 39.5906 -85.2575 81° East 463 533 41,000  Level Indianapolis Center
12:02AM 39.6083 -85.0919 82° East 462 532 41,000  Level Indianapolis Center
12:03AM 39.6283 -84.9267 81° East 462 532 41,000  Level Indianapolis Center
12:04AM 39.6483 -84.7525 81° East 464 534 41,000  Level Indianapolis Center
12:05AM 39.6650 -84.5858 83° East 464 534 41,000  Level Indianapolis Center
12:06AM 39.6844 -84.4203 81° East 460 529 41,000  Level Indianapolis Center
12:07AM 39.7022 -84.2536 82° East 463 533 41,000  Level Indianapolis Center
12:08AM 39.7203 -84.0889 82° East 459 528 41,000  Level Indianapolis Center
12:09AM 39.7367 -83.9231 83° East 462 532 41,000  Level Indianapolis Center
12:10AM 39.7536 -83.7564 82° East 463 533 41,000  Level Indianapolis Center
12:11AM 39.7683 -83.5994 83° East 460 529 41,000  Level Indianapolis Center
12:12AM 39.7875 -83.4308 82° East 467 537 41,000  Level Indianapolis Center
12:13AM 39.8033 -83.2658 83° East 462 532 41,000  Level Indianapolis Center
12:14AM 39.8200 -83.0989 83° East 462 532 41,000  Level Indianapolis Center
12:15AM 39.8350 -82.9328 83° East 461 531 41,000  Level Indianapolis Center
12:16AM 39.8517 -82.7653 83° East 463 533 41,000  Level Indianapolis Center
12:17AM 39.8678 -82.5961 83° East 467 537 41,000  Level Indianapolis Center
12:18AM 39.8825 -82.4275 83° East 467 537 41,000  Level Indianapolis Center
12:19AM 39.8964 -82.2617 84° East 460 529 41,000  Level Indianapolis Center
12:20AM 39.9122 -82.0967 83° East 458 527 41,000  Level Indianapolis Center
12:21AM 39.9258 -81.9311 84° East 457 526 41,000  Level Indianapolis Center
12:22AM 39.9403 -81.7664 83° East 454 522 41,000  Level Indianapolis Center
12:23AM 39.9289 -81.6003 95° East 456 525 41,000  Level Indianapolis Center
12:24AM 39.9047 -81.4117 99° East 455 524 41,000  Level Indianapolis Center
12:25AM 39.8819 -81.2492 100° East 454 522 41,000  Level Indianapolis Center
12:27AM 39.8558 -81.0960 102° East  Level FlightAware Approximate
12:29AM 39.7964 -80.6044 99° East 448 516 41,000  Level Indianapolis Center
12:30AM 39.7931 -80.5500 95° East 448 516 41,000  Level Washington Center
12:31AM 39.7703 -80.3917 101° East 448 516 41,000  Level Washington Center
12:32AM 39.7472 -80.2336 101° East 448 516 41,000  Level Washington Center
12:33AM 39.7281 -80.0786 99° East 448 516 41,000  Level Washington Center
12:34AM 39.6982 -80.0189 99° East  Level FlightAware Approximate
12:34AM 39.7047 -79.9206 101° East 441 507 41,000  Level Washington Center
12:35AM 39.6811 -79.7600 101° East 446 513 41,000  Level Washington Center
12:36AM 39.6594 -79.6053 100° East 446 513 41,000  Level Washington Center
12:37AM 39.6356 -79.4447 101° East 446 513 41,000  Level Washington Center
12:38AM 39.6114 -79.2819 101° East 451 519 41,000 -1,260 Level Washington Center
12:39AM 39.5833 -79.1056 102° East 451 519 38,500 -2,640 Descending Washington Center
12:40AM 39.5606 -78.9508 101° East 451 519 35,800 -3,180 Descending Washington Center
12:41AM 39.5358 -78.7911 101° East 446 513 32,300 -3,420 Descending Washington Center
12:42AM 39.5108 -78.6339 102° East 446 513 29,000 -3,000 Descending Washington Center
12:43AM 39.4853 -78.4794 102° East 446 513 26,300 -2,520 Descending Washington Center
12:44AM 39.4656 -78.3417 100° East 441 507 24,100 -2,400 Descending Washington Center
12:45AM 39.4417 -78.1956 102° East 429 494 21,500 -2,520 Descending Washington Center
12:46AM 39.4178 -78.0522 102° East 412 474 19,000 -2,520 Descending Washington Center
12:47AM 39.3953 -77.9172 102° East 402 463 16,600 -2,040 Descending Washington Center
12:48AM 39.3917 -77.7828 92° East 382 440 15,000 -2,040 Descending Washington Center
12:49AM 39.3917 -77.6594 90° East 363 418 12,600 -2,100 Descending Washington Center
12:50AM 39.3772 -77.5328 98° East 356 410 10,800 -1,380 Descending Washington Center
12:51AM 39.3642 -77.4250 99° East 331 381 9,900 -1,200 Descending Washington Center
12:52AM 39.3511 -77.3281 100° East 295 339 8,500 -1,620 Descending Washington Center
12:52AM 39.3333 -77.2333 104° East 274 315 6,800 -1,680 Descending Potomac TRACON
12:53AM 39.3333 -77.1333 90° East 266 306 5,400 -1,380 Descending Potomac TRACON
12:54AM 39.3167 -77.0333 102° East 259 298 4,100 -780 Descending Potomac TRACON
12:56AM 39.2626 -76.8932 38° Northeast  Level Estimated
12:56AM 39.3000 -76.8833 38° Northeast 179 206 3,200  Level Potomac TRACON
12:57AM 39.3000 -76.8333 90° East 154 177 2,800 -300 Descending Potomac TRACON
12:59AM 39.2833 -76.7833 113° Southeast 123 142 2,600 -240 Descending Potomac TRACON
01:01AM 39.1754 -76.6683 142° Southeast  Level Estimated
01:08AM 39.1754 -76.6683 142° Southeast  Level Estimated
01:09AM 39.1754 -76.6683 142° Southeast  Level Estimated
01:10AM 39.1754 -76.6683 142° Southeast  Level Estimated
01:11AM 39.1754 -76.6683 142° Southeast  Level Estimated
01:12AM 39.1754 -76.6683 142° Southeast  Level Estimated
01:13AM 39.1754 -76.6683 142° Southeast  Level Estimated
01:14AM 39.1754 -76.6683 142° Southeast  Level Estimated
01:15AM 39.1754 -76.6683 142° Southeast  Level Estimated